Time;durP1;ratioP1;P1;durP2;ratioP2;P2;SDS_P1;SDS_P2;PMS_P1;PMS_P2;Temp;Humidity;BMP_temperature;BMP_pressure;BME280_temperature;BME280_humidity;BME280_pressure;Samples;Min_cycle;Max_cycle;Signal;HPM_P1;HPM_P2
2022/04/16 00:00:06;;;;;;;14.10;8.52;;;;;;;;;;6216320;23;20424;-84
2022/04/16 00:02:31;;;;;;;15.23;8.93;;;;;;;;;;6216426;23;20023;-87
2022/04/16 00:04:57;;;;;;;16.30;9.52;;;;;;;;;;6216510;23;20411;-82
2022/04/16 00:07:22;;;;;;;15.88;9.82;;;;;;;;;;6189661;23;20011;-83
2022/04/16 00:09:48;;;;;;;15.35;9.45;;;;;;;;;;6216171;23;20012;-80
2022/04/16 00:12:13;;;;;;;15.50;9.02;;;;;;;;;;6216643;23;20323;-83
2022/04/16 00:14:39;;;;;;;15.43;9.45;;;;;;;;;;6216189;23;20359;-82
2022/04/16 00:17:05;;;;;;;16.48;10.98;;;;;;;;;;6216301;23;20392;-84
2022/04/16 00:19:32;;;;;;;15.95;10.20;;;;;;;;;;6216216;23;20007;-82
2022/04/16 00:22:00;;;;;;;13.88;8.90;;;;;;;;;;6216270;23;20005;-83
2022/04/16 00:24:27;;;;;;;14.50;9.70;;;;;;;;;;6216147;23;20020;-84
2022/04/16 00:26:52;;;;;;;17.65;10.45;;;;;;;;;;6189482;23;20388;-81
2022/04/16 00:29:18;;;;;;;13.10;10.23;;;;;;;;;;6216316;23;20005;-82
2022/04/16 00:31:45;;;;;;;15.35;10.57;;;;;;;;;;6216253;23;20432;-87
2022/04/16 00:34:14;;;;;;;18.17;9.93;;;;;;;;;;6216367;23;20009;-83
2022/04/16 00:36:43;;;;;;;18.42;9.80;;;;;;;;;;6215985;23;20004;-84
2022/04/16 00:39:09;;;;;;;14.40;9.40;;;;;;;;;;6216264;23;20012;-85
2022/04/16 00:41:35;;;;;;;13.55;9.45;;;;;;;;;;6216144;23;20027;-82
2022/04/16 00:44:00;;;;;;;15.95;9.45;;;;;;;;;;6189377;23;20004;-82
2022/04/16 00:46:26;;;;;;;14.15;8.93;;;;;;;;;;6216083;23;20302;-82
2022/04/16 00:48:51;;;;;;;16.23;9.57;;;;;;;;;;6216183;23;20416;-83
2022/04/16 00:51:16;;;;;;;15.65;9.25;;;;;;;;;;6215811;23;20001;-81
2022/04/16 00:53:43;;;;;;;15.38;9.73;;;;;;;;;;6216494;23;20001;-84
2022/04/16 00:56:11;;;;;;;15.35;10.38;;;;;;;;;;6217957;23;20013;-85
2022/04/16 00:58:40;;;;;;;14.88;10.60;;;;;;;;;;6218301;23;20023;-84
2022/04/16 01:01:05;;;;;;;14.52;9.65;;;;;;;;;;6218151;23;20084;-84
2022/04/16 01:03:31;;;;;;;16.05;9.95;;;;;;;;;;6218163;23;20012;-85
2022/04/16 01:05:58;;;;;;;15.15;9.88;;;;;;;;;;6217983;23;20434;-82
2022/04/16 01:08:23;;;;;;;17.98;10.50;;;;;;;;;;6217995;23;20127;-82
2022/04/16 01:10:49;;;;;;;16.80;10.48;;;;;;;;;;6217930;23;20032;-80
2022/04/16 01:13:15;;;;;;;14.02;9.38;;;;;;;;;;6218229;23;20000;-82
2022/04/16 01:15:41;;;;;;;12.88;9.00;;;;;;;;;;6191226;23;20013;-82
2022/04/16 01:18:07;;;;;;;15.80;9.70;;;;;;;;;;6217996;23;20368;-82
2022/04/16 01:20:35;;;;;;;15.70;9.15;;;;;;;;;;6217685;23;20046;-82
2022/04/16 01:23:02;;;;;;;17.08;10.38;;;;;;;;;;6217945;23;20012;-82
2022/04/16 01:25:27;;;;;;;14.20;9.80;;;;;;;;;;6191378;23;20431;-82
2022/04/16 01:27:56;;;;;;;14.57;8.93;;;;;;;;;;6217811;23;20003;-81
2022/04/16 01:30:22;;;;;;;13.63;10.07;;;;;;;;;;6217699;23;20011;-81
2022/04/16 01:32:48;;;;;;;16.30;10.93;;;;;;;;;;6217728;23;20389;-82
2022/04/16 01:35:15;;;;;;;16.55;10.88;;;;;;;;;;6217610;23;20008;-80
2022/04/16 01:37:41;;;;;;;17.02;10.93;;;;;;;;;;6217735;23;20420;-85
2022/04/16 01:40:08;;;;;;;14.63;9.82;;;;;;;;;;6217811;23;20027;-83
2022/04/16 01:42:34;;;;;;;16.38;9.65;;;;;;;;;;6218159;23;20008;-84
2022/04/16 01:45:01;;;;;;;14.45;10.23;;;;;;;;;;6218312;23;20000;-88
2022/04/16 01:47:27;;;;;;;15.23;10.32;;;;;;;;;;6217754;23;20416;-89
2022/04/16 01:49:54;;;;;;;14.48;9.07;;;;;;;;;;6217999;23;20009;-88
2022/04/16 01:52:21;;;;;;;15.52;9.88;;;;;;;;;;6217950;23;20416;-85
2022/04/16 01:54:47;;;;;;;11.93;8.07;;;;;;;;;;6218556;23;20138;-80
2022/04/16 01:57:12;;;;;;;12.63;8.02;;;;;;;;;;6217501;23;20001;-86
2022/04/16 01:59:38;;;;;;;17.63;10.18;;;;;;;;;;6217401;23;20016;-82
2022/04/16 02:02:03;;;;;;;16.75;10.57;;;;;;;;;;6217488;23;20297;-89
2022/04/16 02:04:31;;;;;;;15.25;9.93;;;;;;;;;;6217974;23;20001;-88
2022/04/16 02:06:57;;;;;;;13.80;9.63;;;;;;;;;;6217590;23;20057;-88
2022/04/16 02:09:22;;;;;;;15.55;9.57;;;;;;;;;;6217897;23;20000;-88
2022/04/16 02:11:48;;;;;;;14.30;10.55;;;;;;;;;;6191004;23;20087;-88
2022/04/16 02:14:13;;;;;;;12.65;8.60;;;;;;;;;;6191034;23;20032;-87
2022/04/16 02:16:38;;;;;;;17.90;8.88;;;;;;;;;;6217526;23;20009;-87
2022/04/16 02:19:04;;;;;;;11.65;9.15;;;;;;;;;;6217541;23;20032;-87
2022/04/16 02:21:32;;;;;;;11.23;8.80;;;;;;;;;;6218277;23;20008;-87
2022/04/16 02:23:58;;;;;;;11.73;7.75;;;;;;;;;;6217185;23;20012;-83
2022/04/16 02:26:25;;;;;;;13.70;6.65;;;;;;;;;;6217705;23;20015;-85
2022/04/16 02:28:50;;;;;;;12.75;7.47;;;;;;;;;;6217534;23;20023;-87
2022/04/16 02:31:16;;;;;;;13.90;7.85;;;;;;;;;;6217344;23;20469;-87
2022/04/16 02:33:41;;;;;;;13.55;8.65;;;;;;;;;;6217292;23;20007;-87
2022/04/16 02:36:07;;;;;;;15.93;8.43;;;;;;;;;;6217710;23;20014;-86
2022/04/16 02:38:33;;;;;;;12.60;7.88;;;;;;;;;;6217339;23;20001;-88
2022/04/16 02:40:59;;;;;;;12.38;8.02;;;;;;;;;;6217287;23;20015;-88
2022/04/16 02:43:24;;;;;;;11.13;7.07;;;;;;;;;;6217439;23;20001;-85
2022/04/16 02:48:34;;;;;;;11.43;7.70;;;;;;;;;;6217317;23;20028;-88
2022/04/16 02:50:59;;;;;;;10.70;7.45;;;;;;;;;;6216930;23;20417;-84
2022/04/16 02:53:26;;;;;;;14.13;7.28;;;;;;;;;;6217366;23;20054;-84
2022/04/16 02:55:54;;;;;;;11.45;7.47;;;;;;;;;;6216963;23;20080;-86
2022/04/16 02:58:20;;;;;;;11.82;7.53;;;;;;;;;;6217280;23;20079;-87
2022/04/16 03:00:46;;;;;;;11.68;8.00;;;;;;;;;;6216899;23;20420;-85
2022/04/16 03:03:11;;;;;;;13.32;9.10;;;;;;;;;;6190447;23;20004;-89
2022/04/16 03:05:37;;;;;;;13.30;8.32;;;;;;;;;;6217584;23;20329;-85
2022/04/16 03:08:07;;;;;;;12.82;8.80;;;;;;;;;;6216844;23;20005;-82
2022/04/16 03:10:33;;;;;;;14.90;10.02;;;;;;;;;;6217234;23;20079;-81
2022/04/16 03:12:58;;;;;;;14.48;10.48;;;;;;;;;;6216868;23;20004;-83
2022/04/16 03:18:10;;;;;;;10.82;7.90;;;;;;;;;;6216541;23;20384;-83
2022/04/16 03:20:40;;;;;;;12.27;7.35;;;;;;;;;;6216820;23;20417;-83
2022/04/16 03:23:06;;;;;;;14.02;8.18;;;;;;;;;;6216644;23;20428;-85
2022/04/16 03:25:31;;;;;;;13.23;9.27;;;;;;;;;;6217070;23;20011;-81
2022/04/16 03:27:58;;;;;;;16.05;9.32;;;;;;;;;;6216952;23;20001;-87
2022/04/16 03:30:24;;;;;;;13.10;8.68;;;;;;;;;;6216808;23;20004;-83
2022/04/16 03:32:51;;;;;;;14.13;8.07;;;;;;;;;;6216969;23;20054;-80
2022/04/16 03:35:21;;;;;;;9.80;8.10;;;;;;;;;;6216624;23;20012;-86
2022/04/16 03:37:46;;;;;;;13.75;8.20;;;;;;;;;;6216696;23;20005;-88
2022/04/16 03:40:13;;;;;;;11.07;7.75;;;;;;;;;;6216452;23;20001;-85
2022/04/16 03:42:49;;;;;;;14.60;8.75;;;;;;;;;;6216558;23;20074;-84
2022/04/16 03:45:22;;;;;;;11.10;7.22;;;;;;;;;;6216472;23;20005;-81
2022/04/16 03:47:49;;;;;;;12.65;8.00;;;;;;;;;;6216724;23;20004;-84
2022/04/16 03:50:16;;;;;;;9.98;7.72;;;;;;;;;;6216527;23;20000;-85
2022/04/16 03:52:42;;;;;;;11.07;8.25;;;;;;;;;;6216741;23;20309;-80
2022/04/16 04:00:49;;;;;;;11.25;7.60;;;;;;;;;;6216486;23;20019;-82
2022/04/16 04:03:15;;;;;;;13.85;9.45;;;;;;;;;;6216231;23;20004;-83
2022/04/16 04:05:42;;;;;;;9.45;7.50;;;;;;;;;;6216446;23;20435;-85
2022/04/16 04:08:09;;;;;;;11.38;7.88;;;;;;;;;;6216539;23;20506;-87
2022/04/16 04:10:35;;;;;;;10.98;7.88;;;;;;;;;;6189755;23;20008;-84
2022/04/16 04:13:02;;;;;;;13.55;7.95;;;;;;;;;;6215887;23;20348;-81
2022/04/16 04:15:29;;;;;;;11.10;7.38;;;;;;;;;;6216087;23;20080;-82
2022/04/16 04:17:56;;;;;;;10.02;6.07;;;;;;;;;;6216630;23;20054;-86
2022/04/16 04:20:21;;;;;;;8.23;6.93;;;;;;;;;;6216112;23;20002;-81
2022/04/16 04:22:46;;;;;;;9.00;6.70;;;;;;;;;;6216106;23;20011;-86
2022/04/16 04:25:12;;;;;;;9.85;6.65;;;;;;;;;;6189738;23;20069;-86
2022/04/16 04:27:37;;;;;;;9.30;6.65;;;;;;;;;;6216273;23;20329;-86
2022/04/16 04:30:04;;;;;;;9.32;7.38;;;;;;;;;;6189546;23;20018;-88
2022/04/16 04:32:29;;;;;;;10.50;6.50;;;;;;;;;;6216255;23;20450;-85
2022/04/16 04:34:55;;;;;;;11.35;6.80;;;;;;;;;;6189502;23;20001;-85
2022/04/16 04:37:21;;;;;;;9.85;7.30;;;;;;;;;;6216401;23;20004;-80
2022/04/16 04:39:46;;;;;;;10.45;7.28;;;;;;;;;;6216041;23;20008;-86
2022/04/16 04:42:12;;;;;;;10.68;7.07;;;;;;;;;;6216338;23;20001;-84
2022/04/16 04:44:37;;;;;;;11.65;7.25;;;;;;;;;;6216296;23;20005;-84
2022/04/16 04:47:03;;;;;;;10.57;7.13;;;;;;;;;;6216401;23;20012;-82
2022/04/16 04:49:28;;;;;;;9.98;6.93;;;;;;;;;;6216375;23;20328;-81
2022/04/16 04:51:54;;;;;;;10.75;6.93;;;;;;;;;;6216230;23;20329;-85
2022/04/16 04:54:19;;;;;;;8.30;6.68;;;;;;;;;;6216022;23;20007;-82
2022/04/16 04:56:46;;;;;;;8.77;6.68;;;;;;;;;;6215839;23;20011;-85
2022/04/16 04:59:11;;;;;;;7.18;5.40;;;;;;;;;;6216103;23;20001;-85
2022/04/16 05:01:37;;;;;;;9.23;6.72;;;;;;;;;;6215979;23;20055;-83
2022/04/16 05:04:02;;;;;;;9.52;6.57;;;;;;;;;;6216343;23;20063;-84
2022/04/16 05:06:28;;;;;;;5.88;5.18;;;;;;;;;;6216283;23;20007;-84
2022/04/16 05:08:53;;;;;;;9.10;6.15;;;;;;;;;;6216591;23;20078;-83
2022/04/16 05:11:19;;;;;;;7.43;5.47;;;;;;;;;;6189343;23;20087;-80
2022/04/16 05:13:44;;;;;;;7.43;5.93;;;;;;;;;;6215952;23;20417;-83
2022/04/16 05:16:12;;;;;;;6.97;5.22;;;;;;;;;;6215701;23;20054;-82
2022/04/16 05:18:37;;;;;;;6.57;5.07;;;;;;;;;;6216418;23;20004;-87
2022/04/16 05:21:03;;;;;;;8.57;6.05;;;;;;;;;;6216246;23;20048;-85
2022/04/16 05:23:28;;;;;;;8.32;5.93;;;;;;;;;;6215738;23;20432;-81
2022/04/16 05:25:54;;;;;;;7.85;6.00;;;;;;;;;;6215839;23;20005;-83
2022/04/16 05:28:19;;;;;;;10.23;5.90;;;;;;;;;;6216169;23;20005;-86
2022/04/16 05:30:44;;;;;;;8.73;5.47;;;;;;;;;;6215831;23;20005;-81
2022/04/16 05:34:18;;;;;;;8.38;5.72;;;;;;;;;;6189404;23;20005;-82
2022/04/16 05:36:03;;;;;;;8.63;5.80;;;;;;;;;;6215477;23;20005;-87
2022/04/16 05:38:28;;;;;;;9.77;5.90;;;;;;;;;;6215882;23;20471;-81
2022/04/16 05:40:54;;;;;;;11.18;6.60;;;;;;;;;;6216533;23;19996;-86
2022/04/16 05:43:19;;;;;;;8.73;5.80;;;;;;;;;;6217632;23;20016;-81
2022/04/16 05:45:45;;;;;;;9.43;5.85;;;;;;;;;;6217735;23;20011;-86
2022/04/16 05:48:10;;;;;;;524.72;194.57;;;;;;;;;;6217754;23;20044;-83
2022/04/16 05:50:37;;;;;;;179.52;60.35;;;;;;;;;;6217660;23;20054;-83
2022/04/16 05:53:05;;;;;;;42.63;18.00;;;;;;;;;;6217716;23;20016;-83
2022/04/16 05:55:31;;;;;;;16.00;7.15;;;;;;;;;;6217450;23;20008;-89
2022/04/16 05:57:56;;;;;;;11.25;6.95;;;;;;;;;;6217930;23;20087;-86
2022/04/16 06:00:22;;;;;;;19.48;9.00;;;;;;;;;;6217448;23;20416;-82
2022/04/16 06:02:48;;;;;;;30.23;14.27;;;;;;;;;;6217794;23;20012;-84
2022/04/16 06:05:13;;;;;;;19.23;9.93;;;;;;;;;;6217716;23;20032;-81
2022/04/16 06:07:38;;;;;;;19.33;9.50;;;;;;;;;;6217567;23;20367;-85
2022/04/16 06:10:04;;;;;;;8.27;5.10;;;;;;;;;;6217296;23;20035;-91
2022/04/16 06:12:30;;;;;;;9.48;6.45;;;;;;;;;;6190615;23;20080;-85
2022/04/16 06:14:55;;;;;;;10.75;6.85;;;;;;;;;;6217170;23;20004;-82
2022/04/16 06:17:21;;;;;;;13.70;5.80;;;;;;;;;;6217238;23;20000;-84
2022/04/16 06:19:46;;;;;;;9.02;5.18;;;;;;;;;;6217112;23;20001;-87
2022/04/16 06:22:12;;;;;;;7.65;5.20;;;;;;;;;;6217409;23;20071;-84
2022/04/16 06:24:41;;;;;;;8.50;5.40;;;;;;;;;;6216963;23;20047;-83
2022/04/16 06:27:07;;;;;;;9.07;5.07;;;;;;;;;;6217507;23;20328;-83
2022/04/16 06:29:32;;;;;;;7.47;5.88;;;;;;;;;;6217115;23;19997;-89
2022/04/16 06:31:58;;;;;;;7.22;5.80;;;;;;;;;;6217224;23;20000;-85
2022/04/16 06:34:23;;;;;;;8.48;6.10;;;;;;;;;;6217100;23;20028;-86
2022/04/16 06:36:50;;;;;;;6.22;5.25;;;;;;;;;;6190501;23;20043;-86
2022/04/16 06:39:15;;;;;;;8.57;4.82;;;;;;;;;;6190498;23;20405;-85
2022/04/16 06:41:40;;;;;;;10.20;5.55;;;;;;;;;;6217053;23;20032;-87
2022/04/16 06:44:06;;;;;;;7.90;5.53;;;;;;;;;;6217760;23;20027;-84
2022/04/16 06:46:32;;;;;;;6.22;4.93;;;;;;;;;;6190529;23;20047;-88
2022/04/16 06:48:58;;;;;;;6.45;5.15;;;;;;;;;;6217183;23;20429;-87
2022/04/16 06:51:23;;;;;;;6.82;4.45;;;;;;;;;;6216861;23;20005;-87
2022/04/16 06:53:49;;;;;;;6.13;4.90;;;;;;;;;;6190096;23;20075;-88
2022/04/16 06:56:14;;;;;;;7.43;5.20;;;;;;;;;;6190375;23;20005;-85
2022/04/16 06:58:39;;;;;;;5.93;4.88;;;;;;;;;;6216767;23;20016;-83
2022/04/16 07:01:05;;;;;;;5.72;4.35;;;;;;;;;;6216117;23;20004;-83
2022/04/16 07:03:30;;;;;;;7.38;4.72;;;;;;;;;;6189803;23;20428;-83
2022/04/16 07:05:56;;;;;;;6.88;4.72;;;;;;;;;;6216763;23;20005;-83
2022/04/16 07:08:21;;;;;;;7.45;4.38;;;;;;;;;;6216791;23;20063;-84
2022/04/16 07:10:46;;;;;;;6.32;4.00;;;;;;;;;;6190066;23;20074;-83
2022/04/16 07:13:12;;;;;;;6.68;4.10;;;;;;;;;;6217209;23;20364;-83
2022/04/16 07:15:38;;;;;;;5.93;3.70;;;;;;;;;;6217171;23;20015;-83
2022/04/16 07:18:04;;;;;;;6.40;4.20;;;;;;;;;;6217192;23;20004;-83
2022/04/16 07:20:30;;;;;;;4.93;3.60;;;;;;;;;;6217048;23;19996;-83
2022/04/16 07:22:55;;;;;;;3.67;2.97;;;;;;;;;;6216446;23;20000;-83
2022/04/16 07:25:21;;;;;;;3.45;2.70;;;;;;;;;;6216589;23;20075;-83
2022/04/16 07:27:47;;;;;;;3.10;2.53;;;;;;;;;;6216752;23;20087;-86
2022/04/16 07:30:13;;;;;;;3.13;2.60;;;;;;;;;;6216754;23;20031;-85
2022/04/16 07:32:39;;;;;;;3.92;2.70;;;;;;;;;;6190137;23;20347;-85
2022/04/16 07:35:08;;;;;;;2.78;2.50;;;;;;;;;;6216658;23;20032;-85
2022/04/16 07:37:34;;;;;;;3.40;2.33;;;;;;;;;;6216951;23;20005;-84
2022/04/16 07:39:59;;;;;;;3.92;2.30;;;;;;;;;;6216520;23;20430;-85
2022/04/16 07:42:28;;;;;;;2.75;2.22;;;;;;;;;;6216782;23;20011;-85
2022/04/16 07:44:56;;;;;;;2.30;2.00;;;;;;;;;;6189885;23;20050;-85
2022/04/16 07:47:22;;;;;;;2.50;2.28;;;;;;;;;;6216755;23;20424;-85
2022/04/16 07:49:47;;;;;;;4.18;2.35;;;;;;;;;;6216436;23;20006;-86
2022/04/16 07:52:13;;;;;;;2.60;2.28;;;;;;;;;;6216223;23;20008;-83
2022/04/16 07:54:38;;;;;;;3.78;2.17;;;;;;;;;;6216274;23;20012;-83
2022/04/16 07:57:07;;;;;;;5.40;2.42;;;;;;;;;;6216270;23;20004;-86
2022/04/16 07:59:32;;;;;;;5.83;2.30;;;;;;;;;;6216622;23;20009;-86
2022/04/16 08:01:58;;;;;;;3.00;2.10;;;;;;;;;;6216437;23;20009;-87
2022/04/16 08:04:24;;;;;;;4.43;2.58;;;;;;;;;;6216219;23;20372;-87
2022/04/16 08:06:50;;;;;;;2.92;1.80;;;;;;;;;;6189482;23;20374;-85
2022/04/16 08:09:16;;;;;;;3.78;1.88;;;;;;;;;;6216173;23;20005;-85
2022/04/16 08:11:42;;;;;;;2.33;2.13;;;;;;;;;;6216499;23;20022;-86
2022/04/16 08:14:07;;;;;;;2.63;2.25;;;;;;;;;;6216293;23;20001;-86
2022/04/16 08:16:33;;;;;;;1.90;1.70;;;;;;;;;;6189430;23;20082;-86
2022/04/16 08:18:58;;;;;;;3.60;2.10;;;;;;;;;;6216088;23;20008;-85
2022/04/16 08:21:28;;;;;;;2.17;1.83;;;;;;;;;;6216569;23;20004;-86
2022/04/16 08:26:51;;;;;;;7.38;2.10;;;;;;;;;;6105366;23;20318;-84
2022/04/16 08:29:17;;;;;;;2.63;1.80;;;;;;;;;;6184328;23;20011;-85
2022/04/16 08:31:43;;;;;;;3.70;2.15;;;;;;;;;;6184521;23;20012;-86
2022/04/16 08:34:08;;;;;;;2.50;2.10;;;;;;;;;;6186288;23;20080;-86
2022/04/16 08:36:33;;;;;;;2.85;1.75;;;;;;;;;;6186115;23;20336;-86
2022/04/16 08:38:59;;;;;;;2.53;1.65;;;;;;;;;;6184381;23;20409;-86
2022/04/16 08:41:25;;;;;;;2.00;1.80;;;;;;;;;;6185816;23;20096;-86
2022/04/16 08:43:53;;;;;;;1.60;1.30;;;;;;;;;;6186025;23;20425;-88
2022/04/16 08:46:18;;;;;;;2.38;1.85;;;;;;;;;;6184468;23;20005;-86
2022/04/16 08:48:44;;;;;;;2.78;1.73;;;;;;;;;;6186100;23;20306;-87
2022/04/16 08:51:10;;;;;;;2.47;1.52;;;;;;;;;;6186160;23;20060;-85
2022/04/16 08:53:35;;;;;;;1.60;1.50;;;;;;;;;;6186622;23;20080;-87
2022/04/16 08:56:01;;;;;;;1.77;1.45;;;;;;;;;;6186045;23;20008;-88
2022/04/16 08:58:29;;;;;;;1.73;1.63;;;;;;;;;;6186091;23;20061;-86
2022/04/16 09:00:56;;;;;;;2.30;1.60;;;;;;;;;;6185530;23;20029;-84
2022/04/16 09:03:21;;;;;;;1.90;1.23;;;;;;;;;;6186024;23;20001;-82
2022/04/16 09:05:53;;;;;;;3.17;1.65;;;;;;;;;;6186112;23;20005;-84
2022/04/16 09:08:27;;;;;;;1.80;1.30;;;;;;;;;;6186197;23;20012;-84
2022/04/16 09:11:04;;;;;;;2.78;1.52;;;;;;;;;;6185641;23;20004;-86
2022/04/16 09:13:29;;;;;;;2.22;1.70;;;;;;;;;;6186003;23;20005;-87
2022/04/16 09:16:03;;;;;;;2.63;1.65;;;;;;;;;;6186609;23;20009;-84
2022/04/16 09:18:29;;;;;;;1.73;1.40;;;;;;;;;;6187875;23;20009;-85
2022/04/16 09:20:54;;;;;;;1.70;1.30;;;;;;;;;;6187932;23;20071;-85
2022/04/16 09:23:21;;;;;;;2.30;1.45;;;;;;;;;;6196086;23;20016;-86
2022/04/16 09:25:48;;;;;;;1.52;1.30;;;;;;;;;;6191154;23;20011;-85
2022/04/16 09:28:15;;;;;;;2.22;1.23;;;;;;;;;;6191108;23;20000;-83
2022/04/16 09:30:57;;;;;;;1.10;1.10;;;;;;;;;;6217963;23;20004;-84
2022/04/16 09:33:23;;;;;;;3.63;1.30;;;;;;;;;;6218106;23;19997;-87
2022/04/16 09:35:55;;;;;;;2.70;1.40;;;;;;;;;;6191152;23;20019;-86
2022/04/16 09:38:20;;;;;;;2.28;1.15;;;;;;;;;;6218926;23;20341;-94
2022/04/16 09:40:47;;;;;;;1.45;1.30;;;;;;;;;;6218159;23;20076;-90
2022/04/16 09:43:12;;;;;;;1.33;1.13;;;;;;;;;;6218067;23;20000;-92
2022/04/16 09:45:39;;;;;;;1.40;1.30;;;;;;;;;;6218059;23;20446;-84
2022/04/16 09:48:09;;;;;;;3.15;1.95;;;;;;;;;;6217952;23;20033;-84
2022/04/16 09:50:37;;;;;;;2.30;1.45;;;;;;;;;;6217692;23;20008;-83
2022/04/16 09:53:05;;;;;;;3.05;1.38;;;;;;;;;;6217618;23;20001;-83
2022/04/16 09:55:31;;;;;;;1.48;1.10;;;;;;;;;;6217634;23;20031;-85
2022/04/16 09:58:04;;;;;;;1.63;1.30;;;;;;;;;;6219684;23;20000;-88
2022/04/16 10:00:32;;;;;;;3.22;1.25;;;;;;;;;;6217474;23;20050;-83
2022/04/16 10:02:59;;;;;;;2.70;1.40;;;;;;;;;;6217799;23;20428;-86
2022/04/16 10:05:25;;;;;;;2.78;1.30;;;;;;;;;;6217307;23;20001;-81
2022/04/16 10:07:55;;;;;;;2.88;1.50;;;;;;;;;;6217279;23;20010;-84
2022/04/16 10:10:41;;;;;;;6.50;2.33;;;;;;;;;;6218943;23;20005;-84
2022/04/16 10:13:10;;;;;;;5.97;2.45;;;;;;;;;;6217331;23;20424;-88
2022/04/16 10:15:46;;;;;;;4.72;2.80;;;;;;;;;;6217597;23;20005;-84
2022/04/16 10:18:12;;;;;;;4.95;3.28;;;;;;;;;;6217406;23;20005;-80
2022/04/16 10:20:48;;;;;;;6.55;3.70;;;;;;;;;;6217178;23;20004;-83
2022/04/16 10:23:24;;;;;;;5.57;3.10;;;;;;;;;;6217661;23;20334;-83
2022/04/16 10:25:50;;;;;;;6.32;2.97;;;;;;;;;;6191480;23;20028;-85
2022/04/16 10:28:23;;;;;;;7.70;3.95;;;;;;;;;;6218535;23;20000;-85
2022/04/16 10:30:53;;;;;;;9.75;5.65;;;;;;;;;;6218985;23;20004;-84
2022/04/16 10:33:21;;;;;;;10.70;6.82;;;;;;;;;;6192025;23;20292;-84
2022/04/16 10:35:59;;;;;;;11.32;7.45;;;;;;;;;;6218863;23;19986;-86
2022/04/16 10:38:39;;;;;;;11.77;7.05;;;;;;;;;;6218712;23;20000;-88
2022/04/16 10:41:14;;;;;;;16.48;8.48;;;;;;;;;;6221392;23;20000;-89
2022/04/16 10:43:40;;;;;;;17.88;9.48;;;;;;;;;;6221124;23;20004;-90
2022/04/16 10:46:09;;;;;;;32.38;11.20;;;;;;;;;;6218139;23;20003;-87
2022/04/16 10:48:37;;;;;;;19.60;11.32;;;;;;;;;;6218417;23;20397;-88
2022/04/16 10:51:05;;;;;;;19.13;10.43;;;;;;;;;;6218949;23;20003;-88
2022/04/16 10:53:36;;;;;;;15.13;10.48;;;;;;;;;;6217691;23;20007;-89
2022/04/16 10:56:20;;;;;;;17.67;9.45;;;;;;;;;;6218361;23;20085;-89
2022/04/16 10:58:58;;;;;;;18.23;10.13;;;;;;;;;;6217434;23;20028;-87
2022/04/16 11:01:25;;;;;;;15.27;9.30;;;;;;;;;;6217991;23;19996;-86
2022/04/16 11:03:51;;;;;;;12.02;8.10;;;;;;;;;;6217632;23;20001;-86
2022/04/16 11:06:17;;;;;;;15.98;8.25;;;;;;;;;;6217417;23;20011;-86
2022/04/16 11:08:45;;;;;;;11.65;7.43;;;;;;;;;;6216939;23;20000;-86
2022/04/16 11:11:13;;;;;;;9.00;6.82;;;;;;;;;;6217255;23;20008;-85
2022/04/16 11:13:40;;;;;;;10.75;6.20;;;;;;;;;;6217175;23;20000;-85
2022/04/16 11:16:06;;;;;;;10.40;6.32;;;;;;;;;;6217047;23;20008;-85
2022/04/16 11:18:43;;;;;;;6.82;5.07;;;;;;;;;;6217200;23;20035;-85
2022/04/16 11:21:18;;;;;;;10.82;5.70;;;;;;;;;;6217319;23;20020;-82
2022/04/16 11:23:45;;;;;;;7.13;4.93;;;;;;;;;;6216608;23;20023;-83
2022/04/16 11:37:15;;;;;;;9.32;4.10;;;;;;;;;;6216591;23;20067;-83
2022/04/16 11:39:41;;;;;;;4.95;3.83;;;;;;;;;;6216266;23;20005;-83
2022/04/16 11:42:07;;;;;;;5.15;3.90;;;;;;;;;;6216534;23;20443;-83
2022/04/16 11:44:38;;;;;;;6.50;4.38;;;;;;;;;;6216337;23;20001;-83
2022/04/16 11:47:20;;;;;;;5.03;3.80;;;;;;;;;;6216612;23;20100;-83
2022/04/16 11:49:58;;;;;;;4.75;4.05;;;;;;;;;;6216463;23;20005;-84
2022/04/16 11:52:32;;;;;;;5.03;3.90;;;;;;;;;;6216417;23;20008;-87
2022/04/16 11:55:14;;;;;;;5.18;4.30;;;;;;;;;;6216799;23;20328;-86
2022/04/16 11:57:45;;;;;;;4.50;3.30;;;;;;;;;;6216565;23;20416;-86
2022/04/16 12:00:11;;;;;;;8.75;4.10;;;;;;;;;;6216407;23;19996;-88
2022/04/16 12:02:39;;;;;;;6.22;4.05;;;;;;;;;;6216120;23;19997;-84
2022/04/16 12:05:17;;;;;;;6.65;4.35;;;;;;;;;;6216442;23;20020;-89
2022/04/16 12:07:48;;;;;;;4.55;3.67;;;;;;;;;;6217735;23;20079;-90
2022/04/16 12:10:14;;;;;;;6.45;4.03;;;;;;;;;;6216966;23;20011;-90
2022/04/16 14:31:35;;;;;;;5.00;3.53;;;;;;;;;;6185259;23;20119;-82
2022/04/16 14:34:00;;;;;;;3.35;3.03;;;;;;;;;;6187682;23;20424;-89
2022/04/16 14:36:26;;;;;;;4.68;3.60;;;;;;;;;;6187873;23;20013;-87
2022/04/16 14:38:51;;;;;;;3.58;3.28;;;;;;;;;;6187678;23;20008;-89
2022/04/16 14:41:17;;;;;;;4.38;2.97;;;;;;;;;;6187946;23;20004;-89
2022/04/16 14:43:50;;;;;;;3.58;2.88;;;;;;;;;;6187942;23;20001;-90
2022/04/16 14:46:22;;;;;;;5.43;3.15;;;;;;;;;;6161940;23;20373;-90
2022/04/16 14:48:56;;;;;;;3.72;3.15;;;;;;;;;;6187848;23;20416;-89
2022/04/16 14:51:43;;;;;;;3.72;3.20;;;;;;;;;;6189224;23;20429;-87
2022/04/16 14:54:12;;;;;;;4.47;2.97;;;;;;;;;;6187581;23;20040;-91
2022/04/16 14:56:40;;;;;;;4.45;3.15;;;;;;;;;;6188045;23;20014;-89
2022/04/16 14:59:06;;;;;;;4.93;3.42;;;;;;;;;;6187541;23;20001;-91
2022/04/16 15:01:37;;;;;;;4.63;3.08;;;;;;;;;;6188033;23;20032;-91
2022/04/16 15:04:05;;;;;;;3.80;3.17;;;;;;;;;;6161926;23;20005;-92
2022/04/16 15:06:39;;;;;;;3.13;2.92;;;;;;;;;;6161599;23;20009;-91
2022/04/16 15:09:07;;;;;;;4.47;3.10;;;;;;;;;;6188100;23;20012;-92
2022/04/16 15:11:33;;;;;;;3.50;3.20;;;;;;;;;;6161754;23;20005;-90
2022/04/16 15:13:58;;;;;;;5.28;3.03;;;;;;;;;;6187621;23;20005;-89
2022/04/16 15:16:23;;;;;;;3.30;3.00;;;;;;;;;;6187983;23;20045;-93
2022/04/16 15:18:49;;;;;;;5.15;3.22;;;;;;;;;;6161646;23;20009;-91
2022/04/16 15:21:23;;;;;;;4.57;3.00;;;;;;;;;;6187695;23;20011;-85
2022/04/16 15:23:53;;;;;;;5.38;3.60;;;;;;;;;;6187295;23;20001;-89
2022/04/16 15:26:19;;;;;;;3.72;3.42;;;;;;;;;;6160663;23;20055;-88
2022/04/16 15:28:45;;;;;;;5.35;3.83;;;;;;;;;;6186850;23;20044;-86
2022/04/16 15:31:29;;;;;;;5.28;3.40;;;;;;;;;;6160101;23;20017;-86
2022/04/16 15:34:00;;;;;;;3.85;2.95;;;;;;;;;;6161109;23;20427;-90
2022/04/16 15:36:29;;;;;;;5.07;3.20;;;;;;;;;;6187533;23;20009;-93
2022/04/16 15:38:57;;;;;;;3.88;3.45;;;;;;;;;;6187494;23;20419;-92
2022/04/16 15:41:23;;;;;;;5.22;3.75;;;;;;;;;;6187660;23;20029;-92
2022/04/16 15:43:55;;;;;;;5.13;3.85;;;;;;;;;;6187100;23;20021;-84
2022/04/16 15:46:25;;;;;;;3.75;3.25;;;;;;;;;;6187622;23;20005;-88
2022/04/16 15:48:50;;;;;;;3.25;2.95;;;;;;;;;;6186909;23;20001;-87
2022/04/16 15:51:25;;;;;;;4.78;2.92;;;;;;;;;;6186656;23;20424;-86
2022/04/16 15:53:51;;;;;;;4.13;3.63;;;;;;;;;;6159214;23;20337;-89
2022/04/16 15:56:17;;;;;;;4.22;3.10;;;;;;;;;;6186387;23;20012;-84
2022/04/16 15:58:46;;;;;;;3.85;3.15;;;;;;;;;;6186320;23;20023;-86
2022/04/16 16:01:11;;;;;;;3.22;2.92;;;;;;;;;;6159918;23;20359;-85
2022/04/16 16:03:38;;;;;;;3.92;3.13;;;;;;;;;;6159898;23;20072;-91
2022/04/16 16:06:11;;;;;;;3.50;3.10;;;;;;;;;;6186667;23;20012;-87
2022/04/16 16:08:36;;;;;;;3.10;2.75;;;;;;;;;;6161225;23;20428;-86
2022/04/16 16:11:09;;;;;;;4.60;3.38;;;;;;;;;;6186599;23;20005;-85
2022/04/16 16:13:35;;;;;;;5.38;3.30;;;;;;;;;;6186581;23;20361;-86
2022/04/16 16:16:00;;;;;;;3.05;2.70;;;;;;;;;;6186685;23;20005;-85
2022/04/16 16:18:26;;;;;;;3.72;3.25;;;;;;;;;;6186325;23;20008;-83
2022/04/16 16:20:57;;;;;;;3.38;3.00;;;;;;;;;;6186435;23;19997;-86
2022/04/16 16:23:27;;;;;;;3.55;2.97;;;;;;;;;;6156674;23;20029;-87
2022/04/16 16:25:54;;;;;;;4.57;3.15;;;;;;;;;;6185958;23;19997;-85
2022/04/16 16:28:20;;;;;;;6.05;3.00;;;;;;;;;;6186325;23;20001;-85
2022/04/16 16:30:49;;;;;;;4.90;3.05;;;;;;;;;;6186216;23;20420;-84
2022/04/16 16:33:15;;;;;;;3.03;2.72;;;;;;;;;;6186241;23;20009;-86
2022/04/16 16:35:41;;;;;;;3.65;3.00;;;;;;;;;;6186011;23;20016;-85
2022/04/16 16:38:06;;;;;;;10.10;6.22;;;;;;;;;;6185932;23;20005;-85
2022/04/16 16:40:33;;;;;;;6.28;3.45;;;;;;;;;;6186068;23;20058;-84
2022/04/16 16:42:58;;;;;;;3.83;3.00;;;;;;;;;;6186384;23;20001;-88
2022/04/16 16:45:25;;;;;;;4.90;3.30;;;;;;;;;;6186308;23;20443;-90
2022/04/16 16:47:50;;;;;;;8.90;5.32;;;;;;;;;;6186686;23;20004;-89
2022/04/16 16:50:22;;;;;;;4.72;3.15;;;;;;;;;;6186833;23;20337;-86
2022/04/16 16:52:53;;;;;;;4.57;2.92;;;;;;;;;;6186713;23;20001;-88
2022/04/16 16:55:23;;;;;;;4.75;2.90;;;;;;;;;;6186426;23;20005;-90
2022/04/16 16:57:50;;;;;;;4.45;2.90;;;;;;;;;;6186854;23;20006;-89
2022/04/16 17:00:19;;;;;;;4.90;3.38;;;;;;;;;;6187559;23;20516;-93
2022/04/16 17:05:34;;;;;;;4.50;3.47;;;;;;;;;;6186837;23;20063;-90
2022/04/16 17:08:02;;;;;;;4.00;2.90;;;;;;;;;;6187733;23;20009;-89
2022/04/16 17:10:31;;;;;;;6.15;3.25;;;;;;;;;;6186860;23;20325;-88
2022/04/16 17:12:56;;;;;;;3.93;3.17;;;;;;;;;;6186482;23;20005;-90
2022/04/16 17:20:51;;;;;;;3.35;2.70;;;;;;;;;;6186535;23;20055;-87
2022/04/16 17:23:17;;;;;;;4.38;3.00;;;;;;;;;;6186377;23;19997;-87
2022/04/16 17:25:43;;;;;;;4.65;3.05;;;;;;;;;;6186159;23;20008;-85
2022/04/16 17:28:08;;;;;;;3.83;3.42;;;;;;;;;;6186321;23;20005;-83